Time;durP1;ratioP1;P1;durP2;ratioP2;P2;SDS_P1;SDS_P2;PMS_P1;PMS_P2;Temp;Humidity;BMP_temperature;BMP_pressure;BME280_temperature;BME280_humidity;BME280_pressure;Samples;Min_cycle;Max_cycle;Signal;HPM_P1;HPM_P2
2022/08/26 00:00:27;;;;;;;;;;;;;;;;;;5031452;28;1396;-73
2022/08/26 00:02:53;;;;;;;;;;;;;;;;;;5030984;28;873;-74
2022/08/26 00:05:19;;;;;;;;;;;;;;;;;;5031494;28;882;-73
2022/08/26 00:07:45;;;;;;;;;;;;;;;;;;5030804;28;898;-73
2022/08/26 00:10:12;;;;;;;;;;;;;;;;;;5030924;28;1894;-73
2022/08/26 00:12:39;;;;;;;;;;;;;;;;;;5031252;28;1131;-73
2022/08/26 00:15:07;;;;;;;;;;;;;;;;;;5031439;28;944;-74
2022/08/26 00:17:34;;;;;;;;;;;;;;;;;;5031129;28;1307;-73
2022/08/26 00:20:00;;;;;;;;;;;;;;;;;;5031307;28;1375;-72
2022/08/26 00:22:26;;;;;;;;;;;;;;;;;;5030783;28;1075;-73
2022/08/26 00:24:52;;;;;;;;;;;;;;;;;;5031250;28;965;-73
2022/08/26 00:27:18;;;;;;;;;;;;;;;;;;5031194;28;1068;-74
2022/08/26 00:29:46;;;;;;;;;;;;;;;;;;5013765;28;2294;-74
2022/08/26 00:32:12;;;;;;;;;;;;;;;;;;5030801;28;1333;-73
2022/08/26 00:34:38;;;;;;;;;;;;;;;;;;5031170;28;914;-74
2022/08/26 00:37:05;;;;;;;;;;;;;;;;;;5031390;28;1123;-73
2022/08/26 00:39:31;;;;;;;;;;;;;;;;;;5030100;28;1313;-74
2022/08/26 00:41:57;;;;;;;;;;;;;;;;;;5031287;28;1290;-73
2022/08/26 00:44:23;;;;;;;;;;;;;;;;;;5031626;28;1181;-73
2022/08/26 00:46:52;;;;;;;;;;;;;;;;;;5029803;28;1175;-73
2022/08/26 00:49:20;;;;;;;;;;;;;;;;;;5030947;28;1926;-73
2022/08/26 00:51:47;;;;;;;;;;;;;;;;;;5030427;28;1432;-73
2022/08/26 00:54:13;;;;;;;;;;;;;;;;;;5030828;28;1092;-73
2022/08/26 00:56:41;;;;;;;;;;;;;;;;;;5029538;28;1185;-73
2022/08/26 00:59:10;;;;;;;;;;;;;;;;;;5030930;28;1009;-73
2022/08/26 01:01:36;;;;;;;;;;;;;;;;;;5030583;28;1321;-73
2022/08/26 01:04:04;;;;;;;;;;;;;;;;;;5030867;28;1181;-73
2022/08/26 01:06:31;;;;;;;;;;;;;;;;;;5030783;28;874;-72
2022/08/26 01:08:57;;;;;;;;;;;;;;;;;;5030508;28;1910;-73
2022/08/26 01:11:23;;;;;;;;;;;;;;;;;;5030202;28;1390;-71
2022/08/26 01:13:50;;;;;;;;;;;;;;;;;;5031019;28;996;-73
2022/08/26 01:16:16;;;;;;;;;;;;;;;;;;5030558;28;997;-74
2022/08/26 01:18:43;;;;;;;;;;;;;;;;;;5032449;28;1060;-73
2022/08/26 01:21:12;;;;;;;;;;;;;;;;;;5034168;28;1311;-73
2022/08/26 01:23:41;;;;;;;;;;;;;;;;;;5016336;28;2290;-74
2022/08/26 01:26:08;;;;;;;;;;;;;;;;;;5034417;28;1079;-73
2022/08/26 01:28:34;;;;;;;;;;;;;;;;;;5034237;28;759;-73
2022/08/26 01:31:01;;;;;;;;;;;;;;;;;;5032888;28;1987;-73
2022/08/26 01:33:28;;;;;;;;;;;;;;;;;;5034128;28;1076;-73
2022/08/26 01:35:54;;;;;;;;;;;;;;;;;;5034191;28;1127;-73
2022/08/26 01:38:21;;;;;;;;;;;;;;;;;;5034020;28;799;-72
2022/08/26 01:40:48;;;;;;;;;;;;;;;;;;5034067;28;1404;-73
2022/08/26 01:43:16;;;;;;;;;;;;;;;;;;5032898;28;1479;-74
2022/08/26 01:45:42;;;;;;;;;;;;;;;;;;5028423;28;1512;-73
2022/08/26 01:48:10;;;;;;;;;;;;;;;;;;5032577;28;1167;-74
2022/08/26 01:50:36;;;;;;;;;;;;;;;;;;5033974;28;1918;-72
2022/08/26 01:53:04;;;;;;;;;;;;;;;;;;5033497;28;728;-73
2022/08/26 01:55:30;;;;;;;;;;;;;;;;;;5033936;28;870;-73
2022/08/26 01:57:58;;;;;;;;;;;;;;;;;;5032408;28;1234;-74
2022/08/26 02:00:24;;;;;;;;;;;;;;;;;;5033669;28;1325;-73
2022/08/26 02:03:15;;;;;;;;;;;;;;;;;;5033437;28;850;-74
2022/08/26 02:05:38;;;;;;;;;;;;;;;;;;5032169;28;1174;-74
2022/08/26 02:08:04;;;;;;;;;;;;;;;;;;5033597;28;1059;-73
2022/08/26 02:10:30;;;;;;;;;;;;;;;;;;5031945;28;1985;-73
2022/08/26 02:12:57;;;;;;;;;;;;;;;;;;5055293;22;3783;-77
2022/08/26 02:15:24;;;;;;;;;;;;;;;;;;5032575;28;1145;-76
2022/08/26 02:17:52;;;;;;;;;;;;;;;;;;5032408;28;1246;-76
2022/08/26 02:20:18;;;;;;;;;;;;;;;;;;5032068;28;1485;-76
2022/08/26 02:22:45;;;;;;;;;;;;;;;;;;5032789;28;1385;-76
2022/08/26 02:25:12;;;;;;;;;;;;;;;;;;5033212;28;1071;-76
2022/08/26 02:27:38;;;;;;;;;;;;;;;;;;5033267;28;1084;-76
2022/08/26 02:30:07;;;;;;;;;;;;;;;;;;5032287;28;1975;-76
2022/08/26 02:32:34;;;;;;;;;;;;;;;;;;5032851;28;1375;-76
2022/08/26 02:35:01;;;;;;;;;;;;;;;;;;5033111;28;1118;-76
2022/08/26 02:37:28;;;;;;;;;;;;;;;;;;5031606;28;1439;-74
2022/08/26 02:39:54;;;;;;;;;;;;;;;;;;5032754;28;1138;-76
2022/08/26 02:42:20;;;;;;;;;;;;;;;;;;5031067;28;1302;-76
2022/08/26 02:44:46;;;;;;;;;;;;;;;;;;5031601;28;1126;-76
2022/08/26 02:47:13;;;;;;;;;;;;;;;;;;5031289;28;1320;-76
2022/08/26 02:49:40;;;;;;;;;;;;;;;;;;5032817;28;1918;-76
2022/08/26 02:52:07;;;;;;;;;;;;;;;;;;5032141;28;1314;-76
2022/08/26 02:54:33;;;;;;;;;;;;;;;;;;5032567;28;894;-76
2022/08/26 02:57:00;;;;;;;;;;;;;;;;;;5032707;28;799;-76
2022/08/26 02:59:26;;;;;;;;;;;;;;;;;;5032350;28;1507;-76
2022/08/26 03:01:52;;;;;;;;;;;;;;;;;;5032194;28;1341;-76
2022/08/26 03:04:18;;;;;;;;;;;;;;;;;;5032345;28;909;-76
2022/08/26 03:06:46;;;;;;;;;;;;;;;;;;5032497;28;1079;-76
2022/08/26 03:09:12;;;;;;;;;;;;;;;;;;5032229;28;1075;-76
2022/08/26 03:11:38;;;;;;;;;;;;;;;;;;5031971;28;1911;-76
2022/08/26 03:14:05;;;;;;;;;;;;;;;;;;5030973;28;1409;-76
2022/08/26 03:16:31;;;;;;;;;;;;;;;;;;5032057;28;873;-76
2022/08/26 03:18:57;;;;;;;;;;;;;;;;;;5032215;28;1067;-76
2022/08/26 03:21:23;;;;;;;;;;;;;;;;;;5030680;28;1259;-76
2022/08/26 03:23:51;;;;;;;;;;;;;;;;;;5032066;28;1285;-76
2022/08/26 03:26:17;;;;;;;;;;;;;;;;;;5031934;28;1063;-76
2022/08/26 03:31:23;;;;;;;;;;;;;;;;;;5033675;28;1914;-75
2022/08/26 03:33:50;;;;;;;;;;;;;;;;;;5034261;28;1297;-76
2022/08/26 03:36:16;;;;;;;;;;;;;;;;;;5031753;28;1076;-76
2022/08/26 03:38:42;;;;;;;;;;;;;;;;;;5030578;28;1268;-76
2022/08/26 03:41:11;;;;;;;;;;;;;;;;;;5030418;28;1367;-76
2022/08/26 03:43:37;;;;;;;;;;;;;;;;;;5052272;28;1491;-76
2022/08/26 03:46:04;;;;;;;;;;;;;;;;;;5071550;28;1174;-76
2022/08/26 03:48:30;;;;;;;;;;;;;;;;;;5071365;28;1063;-76
2022/08/26 03:50:56;;;;;;;;;;;;;;;;;;5071362;28;1970;-75
2022/08/26 03:53:22;;;;;;;;;;;;;;;;;;5053342;28;1530;-76
2022/08/26 03:55:49;;;;;;;;;;;;;;;;;;5061921;28;1468;-75
2022/08/26 03:58:16;;;;;;;;;;;;;;;;;;5040088;28;1532;-74
2022/08/26 04:00:43;;;;;;;;;;;;;;;;;;5037935;28;1182;-75
2022/08/26 04:03:10;;;;;;;;;;;;;;;;;;5042848;28;1471;-75
2022/08/26 04:05:36;;;;;;;;;;;;;;;;;;5033009;28;1346;-74
2022/08/26 04:08:04;;;;;;;;;;;;;;;;;;5037398;28;1520;-74
2022/08/26 04:10:31;;;;;;;;;;;;;;;;;;5031298;28;1977;-74
2022/08/26 04:12:57;;;;;;;;;;;;;;;;;;5030601;28;1480;-74
2022/08/26 04:15:25;;;;;;;;;;;;;;;;;;5040853;28;1559;-74
2022/08/26 04:17:51;;;;;;;;;;;;;;;;;;5042622;28;1170;-74
2022/08/26 04:20:18;;;;;;;;;;;;;;;;;;5033057;28;1142;-74
2022/08/26 04:22:44;;;;;;;;;;;;;;;;;;5048616;28;1626;-74
2022/08/26 04:25:11;;;;;;;;;;;;;;;;;;5040988;28;1233;-73
2022/08/26 04:27:37;;;;;;;;;;;;;;;;;;5050554;28;1526;-72
2022/08/26 04:30:04;;;;;;;;;;;;;;;;;;5043753;28;1985;-74
2022/08/26 04:32:31;;;;;;;;;;;;;;;;;;5034947;28;1364;-74
2022/08/26 04:34:57;;;;;;;;;;;;;;;;;;5039760;28;1178;-74
2022/08/26 04:37:24;;;;;;;;;;;;;;;;;;5032923;28;1317;-73
2022/08/26 04:39:50;;;;;;;;;;;;;;;;;;5029628;28;1467;-74
2022/08/26 04:42:16;;;;;;;;;;;;;;;;;;5037835;28;1495;-75
2022/08/26 04:44:43;;;;;;;;;;;;;;;;;;5038845;28;1506;-75
2022/08/26 04:47:09;;;;;;;;;;;;;;;;;;5041051;28;1110;-75
2022/08/26 04:49:37;;;;;;;;;;;;;;;;;;5031783;28;2318;-76
2022/08/26 04:52:03;;;;;;;;;;;;;;;;;;5030711;28;1914;-75
2022/08/26 04:54:30;;;;;;;;;;;;;;;;;;5032775;28;1365;-75
2022/08/26 04:56:56;;;;;;;;;;;;;;;;;;5040788;28;1189;-75
2022/08/26 04:59:22;;;;;;;;;;;;;;;;;;5046036;28;1515;-76
2022/08/26 05:01:50;;;;;;;;;;;;;;;;;;5039313;28;1425;-73
2022/08/26 05:04:16;;;;;;;;;;;;;;;;;;5036525;28;1460;-74
2022/08/26 05:06:44;;;;;;;;;;;;;;;;;;5044900;28;1150;-74
2022/08/26 05:09:10;;;;;;;;;;;;;;;;;;5054120;28;1084;-75
2022/08/26 05:11:37;;;;;;;;;;;;;;;;;;5044990;28;1918;-74
2022/08/26 05:14:04;;;;;;;;;;;;;;;;;;5037006;28;1400;-75
2022/08/26 05:16:31;;;;;;;;;;;;;;;;;;5041431;28;1523;-74
2022/08/26 05:18:57;;;;;;;;;;;;;;;;;;5037097;28;1079;-75
2022/08/26 05:21:24;;;;;;;;;;;;;;;;;;5034577;28;1417;-75
2022/08/26 05:23:53;;;;;;;;;;;;;;;;;;5045069;28;1460;-74
2022/08/26 05:26:20;;;;;;;;;;;;;;;;;;5043761;28;1362;-74
2022/08/26 05:28:46;;;;;;;;;;;;;;;;;;5045523;28;1236;-74
2022/08/26 05:31:13;;;;;;;;;;;;;;;;;;5050433;28;1918;-73
2022/08/26 05:33:39;;;;;;;;;;;;;;;;;;5052139;28;1290;-75
2022/08/26 05:36:06;;;;;;;;;;;;;;;;;;5051335;28;1319;-75
2022/08/26 05:38:33;;;;;;;;;;;;;;;;;;5035817;28;1136;-74
2022/08/26 05:41:01;;;;;;;;;;;;;;;;;;5053513;28;882;-74
2022/08/26 05:43:27;;;;;;;;;;;;;;;;;;5030802;28;1399;-74
2022/08/26 05:45:53;;;;;;;;;;;;;;;;;;5035114;28;1136;-75
2022/08/26 05:48:20;;;;;;;;;;;;;;;;;;5053016;28;889;-74
2022/08/26 05:50:47;;;;;;;;;;;;;;;;;;5053380;28;1906;-75
2022/08/26 05:53:14;;;;;;;;;;;;;;;;;;5052857;28;1329;-75
2022/08/26 05:55:41;;;;;;;;;;;;;;;;;;5053366;28;870;-74
2022/08/26 05:58:08;;;;;;;;;;;;;;;;;;5053183;28;743;-74
2022/08/26 06:00:35;;;;;;;;;;;;;;;;;;5053419;28;1067;-74
2022/08/26 06:03:01;;;;;;;;;;;;;;;;;;5053021;28;1328;-74
2022/08/26 06:05:27;;;;;;;;;;;;;;;;;;5051692;28;961;-74
2022/08/26 06:08:13;;;;;;;;;;;;;;;;;;5053149;28;783;-74
2022/08/26 06:10:42;;;;;;;;;;;;;;;;;;5033210;28;2211;-73
2022/08/26 06:13:10;;;;;;;;;;;;;;;;;;5041025;28;1418;-72
2022/08/26 06:15:38;;;;;;;;;;;;;;;;;;5043860;28;1395;-74
2022/08/26 06:18:05;;;;;;;;;;;;;;;;;;5049233;28;1336;-73
2022/08/26 06:20:31;;;;;;;;;;;;;;;;;;5037818;28;1166;-73
2022/08/26 06:25:41;;;;;;;;;;;;;;;;;;5051749;28;1432;-76
2022/08/26 06:28:08;;;;;;;;;;;;;;;;;;5044223;28;1162;-75
2022/08/26 06:30:40;;;;;;;;;;;;;;;;;;5052074;28;1918;-74
2022/08/26 06:33:06;;;;;;;;;;;;;;;;;;5049365;28;1417;-75
2022/08/26 06:35:35;;;;;;;;;;;;;;;;;;5052300;28;1171;-75
2022/08/26 06:38:01;;;;;;;;;;;;;;;;;;5052623;28;1056;-75
2022/08/26 06:40:28;;;;;;;;;;;;;;;;;;5052605;28;1071;-75
2022/08/26 06:42:54;;;;;;;;;;;;;;;;;;5030380;28;1412;-75
2022/08/26 06:45:20;;;;;;;;;;;;;;;;;;5033096;28;1457;-75
2022/08/26 06:47:48;;;;;;;;;;;;;;;;;;5044538;28;1583;-74
2022/08/26 06:50:14;;;;;;;;;;;;;;;;;;5042268;28;1322;-75
2022/08/26 06:52:40;;;;;;;;;;;;;;;;;;5046274;28;1920;-74
2022/08/26 06:55:07;;;;;;;;;;;;;;;;;;5051591;28;1115;-75
2022/08/26 06:57:35;;;;;;;;;;;;;;;;;;5045714;28;1476;-77
2022/08/26 07:00:03;;;;;;;;;;;;;;;;;;5034646;28;1490;-76
2022/08/26 07:02:29;;;;;;;;;;;;;;;;;;5032741;28;1595;-76
2022/08/26 07:04:57;;;;;;;;;;;;;;;;;;5046732;28;1661;-76
2022/08/26 07:07:23;;;;;;;;;;;;;;;;;;5032179;28;1624;-76
2022/08/26 07:09:49;;;;;;;;;;;;;;;;;;5036183;28;1179;-76
2022/08/26 07:12:16;;;;;;;;;;;;;;;;;;5033209;28;1906;-76
2022/08/26 07:14:43;;;;;;;;;;;;;;;;;;5050890;28;1979;-76
2022/08/26 07:17:09;;;;;;;;;;;;;;;;;;5040787;28;1170;-76
2022/08/26 07:19:35;;;;;;;;;;;;;;;;;;5033930;28;1699;-76
2022/08/26 07:22:04;;;;;;;;;;;;;;;;;;5042891;28;1761;-75
2022/08/26 07:24:30;;;;;;;;;;;;;;;;;;5048604;28;1262;-78
2022/08/26 07:26:58;;;;;;;;;;;;;;;;;;5051558;28;1130;-77
2022/08/26 07:29:24;;;;;;;;;;;;;;;;;;5030272;28;1734;-77
2022/08/26 07:31:51;;;;;;;;;;;;;;;;;;5042762;28;1914;-77
2022/08/26 07:34:17;;;;;;;;;;;;;;;;;;5042008;28;1682;-77
2022/08/26 07:36:43;;;;;;;;;;;;;;;;;;5050166;28;1083;-77
2022/08/26 07:39:11;;;;;;;;;;;;;;;;;;5050031;28;1586;-77
2022/08/26 07:41:37;;;;;;;;;;;;;;;;;;5036682;28;1828;-77
2022/08/26 07:44:03;;;;;;;;;;;;;;;;;;5059063;28;1287;-77
2022/08/26 07:46:30;;;;;;;;;;;;;;;;;;5040984;28;1808;-77
2022/08/26 07:48:56;;;;;;;;;;;;;;;;;;5044133;28;1591;-77
2022/08/26 07:51:22;;;;;;;;;;;;;;;;;;5033073;28;1918;-77
2022/08/26 07:53:48;;;;;;;;;;;;;;;;;;5051321;28;1372;-77
2022/08/26 07:56:16;;;;;;;;;;;;;;;;;;5050256;28;1076;-77
2022/08/26 07:58:42;;;;;;;;;;;;;;;;;;5029325;28;1114;-76
2022/08/26 08:01:08;;;;;;;;;;;;;;;;;;5050281;28;1031;-77
2022/08/26 08:03:35;;;;;;;;;;;;;;;;;;5047468;28;1552;-76
2022/08/26 08:06:01;;;;;;;;;;;;;;;;;;5047717;28;1597;-76
2022/08/26 08:08:27;;;;;;;;;;;;;;;;;;5038487;28;1379;-77
2022/08/26 08:10:54;;;;;;;;;;;;;;;;;;5044669;28;1946;-77
2022/08/26 08:13:23;;;;;;;;;;;;;;;;;;5072496;23;2077;-78
2022/08/26 08:15:49;;;;;;;;;;;;;;;;;;5031570;28;1342;-78
2022/08/26 08:18:15;;;;;;;;;;;;;;;;;;5034245;28;1773;-77
2022/08/26 08:20:41;;;;;;;;;;;;;;;;;;5040606;28;1202;-77
2022/08/26 08:23:07;;;;;;;;;;;;;;;;;;5052119;28;1696;-77
2022/08/26 08:25:34;;;;;;;;;;;;;;;;;;5052646;28;1034;-77
2022/08/26 08:28:00;;;;;;;;;;;;;;;;;;5049555;28;1367;-78
2022/08/26 08:30:28;;;;;;;;;;;;;;;;;;5060550;28;1142;-77
2022/08/26 08:32:54;;;;;;;;;;;;;;;;;;5049985;28;1953;-76
2022/08/26 08:35:21;;;;;;;;;;;;;;;;;;5050124;28;898;-77
2022/08/26 08:37:49;;;;;;;;;;;;;;;;;;5053529;28;1459;-77
2022/08/26 08:40:16;;;;;;;;;;;;;;;;;;5058076;28;1308;-77
2022/08/26 08:42:44;;;;;;;;;;;;;;;;;;5061655;28;936;-75
2022/08/26 08:45:10;;;;;;;;;;;;;;;;;;5050384;28;1361;-76
2022/08/26 08:47:40;;;;;;;;;;;;;;;;;;5032660;28;1112;-77
2022/08/26 08:50:10;;;;;;;;;;;;;;;;;;5050200;28;1554;-77
2022/08/26 08:52:36;;;;;;;;;;;;;;;;;;5061576;28;1987;-77
2022/08/26 08:55:03;;;;;;;;;;;;;;;;;;5070155;28;1373;-76
2022/08/26 08:57:32;;;;;;;;;;;;;;;;;;5068350;28;1495;-76
2022/08/26 09:00:01;;;;;;;;;;;;;;;;;;5054732;28;1610;-77
2022/08/26 09:02:33;;;;;;;;;;;;;;;;;;5070011;28;1268;-77
2022/08/26 09:05:05;;;;;;;;;;;;;;;;;;5058392;28;1314;-75
2022/08/26 09:07:33;;;;;;;;;;;;;;;;;;5060951;28;1665;-78
2022/08/26 09:10:00;;;;;;;;;;;;;;;;;;5058883;28;1260;-76
2022/08/26 09:12:29;;;;;;;;;;;;;;;;;;5069939;28;1985;-76
2022/08/26 09:14:56;;;;;;;;;;;;;;;;;;5048879;28;1459;-79
2022/08/26 09:17:26;;;;;;;;;;;;;;;;;;5041238;28;1497;-77
2022/08/26 09:19:52;;;;;;;;;;;;;;;;;;5057060;28;1499;-76
2022/08/26 09:22:29;;;;;;;;;;;;;;;;;;5049879;28;1165;-77
2022/08/26 09:24:56;;;;;;;;;;;;;;;;;;5050022;28;1388;-77
2022/08/26 09:27:37;;;;;;;;;;;;;;;;;;5057628;28;1392;-77
2022/08/26 09:30:03;;;;;;;;;;;;;;;;;;5057068;28;1547;-77
2022/08/26 09:32:30;;;;;;;;;;;;;;;;;;5032685;28;1911;-78
2022/08/26 09:34:58;;;;;;;;;;;;;;;;;;5049820;28;1292;-77
2022/08/26 09:37:34;;;;;;;;;;;;;;;;;;5032272;28;1567;-79
2022/08/26 09:40:11;;;;;;;;;;;;;;;;;;5043043;28;1609;-77
2022/08/26 09:42:38;;;;;;;;;;;;;;;;;;5073398;28;1079;-78
2022/08/26 09:45:07;;;;;;;;;;;;;;;;;;5055773;28;1317;-76
2022/08/26 09:47:33;;;;;;;;;;;;;;;;;;5061515;28;1519;-77
2022/08/26 09:50:03;;;;;;;;;;;;;;;;;;5063801;28;1542;-77
2022/08/26 09:52:29;;;;;;;;;;;;;;;;;;5054418;28;1907;-77
2022/08/26 09:55:05;;;;;;;;;;;;;;;;;;5073122;28;1400;-77
2022/08/26 09:57:32;;;;;;;;;;;;;;;;;;5073542;28;841;-77
2022/08/26 10:00:00;;;;;;;;;;;;;;;;;;5074347;28;1091;-77
2022/08/26 10:02:34;;;;;;;;;;;;;;;;;;5048947;28;1676;-75
2022/08/26 10:05:01;;;;;;;;;;;;;;;;;;5045547;28;1421;-76
2022/08/26 10:07:39;;;;;;;;;;;;;;;;;;5052899;28;1523;-78
2022/08/26 10:10:08;;;;;;;;;;;;;;;;;;5061975;28;1158;-77
2022/08/26 10:12:34;;;;;;;;;;;;;;;;;;5053406;28;1969;-77
2022/08/26 10:15:01;;;;;;;;;;;;;;;;;;5053065;28;1488;-77
2022/08/26 10:17:28;;;;;;;;;;;;;;;;;;5054316;28;1423;-77
2022/08/26 10:19:55;;;;;;;;;;;;;;;;;;5056722;28;1389;-77
2022/08/26 10:22:23;;;;;;;;;;;;;;;;;;5052522;28;1150;-77
2022/08/26 10:24:51;;;;;;;;;;;;;;;;;;5059466;28;1475;-78
2022/08/26 10:27:21;;;;;;;;;;;;;;;;;;5059844;28;1587;-77
2022/08/26 10:29:48;;;;;;;;;;;;;;;;;;5062654;28;1162;-78
2022/08/26 10:32:16;;;;;;;;;;;;;;;;;;5056165;28;1914;-76
2022/08/26 10:34:42;;;;;;;;;;;;;;;;;;5072429;28;1266;-75
2022/08/26 10:37:11;;;;;;;;;;;;;;;;;;5063231;28;1451;-76
2022/08/26 10:39:39;;;;;;;;;;;;;;;;;;5060369;28;1161;-76
2022/08/26 10:42:06;;;;;;;;;;;;;;;;;;5052394;28;1063;-74
2022/08/26 10:44:34;;;;;;;;;;;;;;;;;;5052000;28;1289;-76
2022/08/26 10:47:01;;;;;;;;;;;;;;;;;;5055671;28;1460;-76
2022/08/26 10:49:28;;;;;;;;;;;;;;;;;;5064083;28;987;-76
2022/08/26 10:51:56;;;;;;;;;;;;;;;;;;5035321;28;1914;-75
2022/08/26 10:54:23;;;;;;;;;;;;;;;;;;5059781;28;1429;-76
2022/08/26 10:56:52;;;;;;;;;;;;;;;;;;5049294;28;1407;-78
2022/08/26 10:59:20;;;;;;;;;;;;;;;;;;5059201;28;961;-77
2022/08/26 11:01:51;;;;;;;;;;;;;;;;;;5054462;28;1451;-78
2022/08/26 11:04:29;;;;;;;;;;;;;;;;;;5063296;28;1409;-75
2022/08/26 11:07:14;;;;;;;;;;;;;;;;;;5050889;28;1498;-75
2022/08/26 11:09:44;;;;;;;;;;;;;;;;;;5063417;28;1143;-77
2022/08/26 11:12:18;;;;;;;;;;;;;;;;;;5068081;28;1890;-79
2022/08/26 11:14:44;;;;;;;;;;;;;;;;;;5063898;28;1302;-77
2022/08/26 11:17:12;;;;;;;;;;;;;;;;;;5063866;28;1420;-77
2022/08/26 11:19:53;;;;;;;;;;;;;;;;;;5048922;28;1614;-77
2022/08/26 11:22:24;;;;;;;;;;;;;;;;;;5026533;28;1471;-76
2022/08/26 11:25:00;;;;;;;;;;;;;;;;;;5054941;28;1435;-77
2022/08/26 11:27:41;;;;;;;;;;;;;;;;;;5056857;28;1211;-77
2022/08/26 11:30:09;;;;;;;;;;;;;;;;;;5070838;28;1081;-76
2022/08/26 11:32:47;;;;;;;;;;;;;;;;;;5053184;28;1973;-77
2022/08/26 11:35:34;;;;;;;;;;;;;;;;;;5053455;28;1407;-75
2022/08/26 11:38:03;;;;;;;;;;;;;;;;;;5071555;28;1123;-77
2022/08/26 11:40:30;;;;;;;;;;;;;;;;;;5053119;28;1280;-76
2022/08/26 11:42:57;;;;;;;;;;;;;;;;;;5070986;28;1420;-76
2022/08/26 11:45:25;;;;;;;;;;;;;;;;;;5067320;28;1545;-76
2022/08/26 11:47:51;;;;;;;;;;;;;;;;;;5071352;28;1080;-76
2022/08/26 11:50:18;;;;;;;;;;;;;;;;;;5070736;28;1056;-77
2022/08/26 11:52:51;;;;;;;;;;;;;;;;;;5052892;28;1971;-76
2022/08/26 11:55:19;;;;;;;;;;;;;;;;;;5070860;28;1075;-76
2022/08/26 11:57:46;;;;;;;;;;;;;;;;;;5071280;28;877;-76
2022/08/26 12:00:17;;;;;;;;;;;;;;;;;;5070623;28;1075;-75
2022/08/26 12:02:43;;;;;;;;;;;;;;;;;;5069858;28;1114;-77
2022/08/26 12:05:10;;;;;;;;;;;;;;;;;;5071108;28;1325;-75
2022/08/26 12:07:36;;;;;;;;;;;;;;;;;;5070620;28;1522;-75
2022/08/26 12:10:03;;;;;;;;;;;;;;;;;;5052506;28;1170;-77
2022/08/26 12:12:31;;;;;;;;;;;;;;;;;;5070425;28;1910;-74
2022/08/26 12:15:05;;;;;;;;;;;;;;;;;;5070788;28;1401;-74
2022/08/26 12:17:31;;;;;;;;;;;;;;;;;;5058149;28;1277;-74
2022/08/26 12:19:57;;;;;;;;;;;;;;;;;;5050500;28;1180;-78
2022/08/26 12:22:24;;;;;;;;;;;;;;;;;;5047337;28;1145;-78
2022/08/26 12:24:51;;;;;;;;;;;;;;;;;;5050482;28;1383;-74
2022/08/26 12:27:18;;;;;;;;;;;;;;;;;;5049751;28;1259;-74
2022/08/26 12:29:46;;;;;;;;;;;;;;;;;;5050138;28;1339;-75
2022/08/26 12:32:13;;;;;;;;;;;;;;;;;;5050101;28;1513;-75
2022/08/26 12:34:40;;;;;;;;;;;;;;;;;;5049073;28;1983;-75
2022/08/26 12:37:06;;;;;;;;;;;;;;;;;;5050581;28;985;-75
2022/08/26 12:39:34;;;;;;;;;;;;;;;;;;5048884;28;1104;-75
2022/08/26 12:42:00;;;;;;;;;;;;;;;;;;5050429;28;897;-75
2022/08/26 12:44:38;;;;;;;;;;;;;;;;;;5050458;28;1344;-75
2022/08/26 12:47:07;;;;;;;;;;;;;;;;;;5050512;28;873;-75
2022/08/26 12:49:33;;;;;;;;;;;;;;;;;;5038352;28;1551;-75
2022/08/26 12:51:59;;;;;;;;;;;;;;;;;;5051420;28;1383;-76
2022/08/26 12:54:57;;;;;;;;;;;;;;;;;;5061298;28;1918;-77
2022/08/26 12:57:12;;;;;;;;;;;;;;;;;;5032607;28;1209;-76
2022/08/26 12:59:39;;;;;;;;;;;;;;;;;;5050242;28;1071;-76
2022/08/26 13:02:06;;;;;;;;;;;;;;;;;;5057389;28;1531;-75
2022/08/26 13:04:33;;;;;;;;;;;;;;;;;;5037065;28;1427;-75
2022/08/26 13:07:13;;;;;;;;;;;;;;;;;;5035080;28;1235;-76
2022/08/26 13:09:39;;;;;;;;;;;;;;;;;;5050097;28;1071;-76
2022/08/26 13:12:05;;;;;;;;;;;;;;;;;;5032036;28;945;-76
2022/08/26 13:14:31;;;;;;;;;;;;;;;;;;5056120;28;1910;-76
2022/08/26 13:16:58;;;;;;;;;;;;;;;;;;5062341;28;1213;-76
2022/08/26 13:19:25;;;;;;;;;;;;;;;;;;5053883;28;1064;-76
2022/08/26 13:21:52;;;;;;;;;;;;;;;;;;5053761;28;1119;-76
2022/08/26 13:24:20;;;;;;;;;;;;;;;;;;5056836;28;1452;-75
2022/08/26 13:26:47;;;;;;;;;;;;;;;;;;5040813;28;1225;-76
2022/08/26 13:29:14;;;;;;;;;;;;;;;;;;5053314;28;1400;-76
2022/08/26 13:31:40;;;;;;;;;;;;;;;;;;5062888;28;1162;-74
2022/08/26 13:34:07;;;;;;;;;;;;;;;;;;5035600;28;1914;-76
2022/08/26 13:36:34;;;;;;;;;;;;;;;;;;5070347;28;1471;-76
2022/08/26 13:39:01;;;;;;;;;;;;;;;;;;5057890;28;1333;-77
2022/08/26 13:41:27;;;;;;;;;;;;;;;;;;5031621;28;2178;-78
2022/08/26 13:43:53;;;;;;;;;;;;;;;;;;5050231;28;1419;-75
2022/08/26 13:46:19;;;;;;;;;;;;;;;;;;5035556;28;1201;-77
2022/08/26 13:48:46;;;;;;;;;;;;;;;;;;5053102;28;1412;-77
2022/08/26 13:51:12;;;;;;;;;;;;;;;;;;5059812;28;1460;-76
2022/08/26 13:53:39;;;;;;;;;;;;;;;;;;5051578;28;1938;-77
2022/08/26 13:56:06;;;;;;;;;;;;;;;;;;5069746;28;1154;-75
2022/08/26 13:58:32;;;;;;;;;;;;;;;;;;5073096;28;1383;-75
2022/08/26 14:00:58;;;;;;;;;;;;;;;;;;5062885;28;1480;-75
2022/08/26 14:03:24;;;;;;;;;;;;;;;;;;5053714;28;1558;-76
2022/08/26 14:05:50;;;;;;;;;;;;;;;;;;5038108;28;1361;-76
2022/08/26 14:08:17;;;;;;;;;;;;;;;;;;5062123;28;1102;-76
2022/08/26 14:10:44;;;;;;;;;;;;;;;;;;5070820;28;1064;-76
2022/08/26 14:13:11;;;;;;;;;;;;;;;;;;5071053;28;1989;-75
2022/08/26 14:15:37;;;;;;;;;;;;;;;;;;5051283;28;1603;-75
2022/08/26 14:18:04;;;;;;;;;;;;;;;;;;5057537;28;1173;-74
2022/08/26 14:20:30;;;;;;;;;;;;;;;;;;5050186;28;948;-75
2022/08/26 14:22:56;;;;;;;;;;;;;;;;;;5040200;28;1499;-76
2022/08/26 14:25:23;;;;;;;;;;;;;;;;;;5054640;28;1459;-75
2022/08/26 14:27:51;;;;;;;;;;;;;;;;;;5059738;28;1154;-74
2022/08/26 14:30:18;;;;;;;;;;;;;;;;;;5035061;28;1285;-77
2022/08/26 14:32:45;;;;;;;;;;;;;;;;;;5051619;28;1063;-77
2022/08/26 14:35:13;;;;;;;;;;;;;;;;;;5049785;28;1975;-77
2022/08/26 14:37:39;;;;;;;;;;;;;;;;;;5058832;28;1111;-76
2022/08/26 14:40:05;;;;;;;;;;;;;;;;;;5068598;28;1110;-77
2022/08/26 14:42:34;;;;;;;;;;;;;;;;;;5070197;28;1087;-76
2022/08/26 14:45:03;;;;;;;;;;;;;;;;;;5055488;28;1416;-78
2022/08/26 14:47:29;;;;;;;;;;;;;;;;;;5047878;28;1468;-77
2022/08/26 14:49:55;;;;;;;;;;;;;;;;;;5058674;28;1122;-76
2022/08/26 14:52:22;;;;;;;;;;;;;;;;;;5050852;28;1112;-76
2022/08/26 14:54:47;;;;;;;;;;;;;;;;;;5056768;28;2028;-76
2022/08/26 14:57:13;;;;;;;;;;;;;;;;;;5053096;28;1389;-77
2022/08/26 14:59:40;;;;;;;;;;;;;;;;;;5058575;28;1459;-76
2022/08/26 15:02:09;;;;;;;;;;;;;;;;;;5052061;23;3577;-76
2022/08/26 15:04:35;;;;;;;;;;;;;;;;;;5051878;28;1125;-76
2022/08/26 15:07:02;;;;;;;;;;;;;;;;;;5052274;28;1096;-76
2022/08/26 15:09:28;;;;;;;;;;;;;;;;;;5051974;28;885;-73
2022/08/26 15:11:54;;;;;;;;;;;;;;;;;;5051526;28;1312;-74
2022/08/26 15:14:21;;;;;;;;;;;;;;;;;;5051993;28;1976;-72
2022/08/26 15:16:47;;;;;;;;;;;;;;;;;;5050371;28;1358;-74
2022/08/26 15:19:15;;;;;;;;;;;;;;;;;;5051677;28;807;-72
2022/08/26 15:21:42;;;;;;;;;;;;;;;;;;5049683;28;1428;-73
2022/08/26 15:24:08;;;;;;;;;;;;;;;;;;5051884;28;1059;-73
2022/08/26 15:26:34;;;;;;;;;;;;;;;;;;5051630;28;796;-73
2022/08/26 15:29:00;;;;;;;;;;;;;;;;;;5051466;28;1143;-73
2022/08/26 15:31:29;;;;;;;;;;;;;;;;;;5051935;28;1332;-73
2022/08/26 15:33:58;;;;;;;;;;;;;;;;;;5051593;28;1918;-73
2022/08/26 15:36:25;;;;;;;;;;;;;;;;;;5050286;28;1510;-73
2022/08/26 15:38:52;;;;;;;;;;;;;;;;;;5045596;28;1598;-73
2022/08/26 15:41:18;;;;;;;;;;;;;;;;;;5041151;28;1446;-73
2022/08/26 15:43:44;;;;;;;;;;;;;;;;;;5050119;28;1443;-73
2022/08/26 15:46:10;;;;;;;;;;;;;;;;;;5049377;28;1115;-73
2022/08/26 15:48:37;;;;;;;;;;;;;;;;;;5047275;28;1443;-73
2022/08/26 15:51:03;;;;;;;;;;;;;;;;;;5048117;28;1501;-73
2022/08/26 15:53:32;;;;;;;;;;;;;;;;;;5048611;28;1926;-73
2022/08/26 15:55:59;;;;;;;;;;;;;;;;;;5046735;28;1550;-73
2022/08/26 15:58:26;;;;;;;;;;;;;;;;;;5046362;28;1586;-73
2022/08/26 16:00:52;;;;;;;;;;;;;;;;;;5046720;28;1735;-74
2022/08/26 16:03:19;;;;;;;;;;;;;;;;;;5048813;28;1068;-74
2022/08/26 16:05:45;;;;;;;;;;;;;;;;;;5048095;28;1391;-74
2022/08/26 16:08:12;;;;;;;;;;;;;;;;;;5047268;28;1132;-74
2022/08/26 16:10:41;;;;;;;;;;;;;;;;;;5048977;28;1334;-73
2022/08/26 16:13:08;;;;;;;;;;;;;;;;;;5048543;28;1115;-74
2022/08/26 16:15:34;;;;;;;;;;;;;;;;;;5042928;28;1922;-75
2022/08/26 16:18:01;;;;;;;;;;;;;;;;;;5044628;28;1372;-74
2022/08/26 16:20:27;;;;;;;;;;;;;;;;;;5040279;28;1409;-74
2022/08/26 16:22:54;;;;;;;;;;;;;;;;;;5038610;28;1521;-74
2022/08/26 16:25:20;;;;;;;;;;;;;;;;;;5027620;28;1118;-74
2022/08/26 16:27:48;;;;;;;;;;;;;;;;;;5028387;28;819;-74
2022/08/26 16:30:14;;;;;;;;;;;;;;;;;;5027345;28;965;-76
2022/08/26 16:32:40;;;;;;;;;;;;;;;;;;5042068;28;1524;-75
2022/08/26 16:35:07;;;;;;;;;;;;;;;;;;5040945;28;1918;-75
2022/08/26 16:37:33;;;;;;;;;;;;;;;;;;5031035;28;1409;-75
2022/08/26 16:39:59;;;;;;;;;;;;;;;;;;5044954;28;1330;-74
2022/08/26 16:42:26;;;;;;;;;;;;;;;;;;5047913;28;1371;-74
2022/08/26 16:44:53;;;;;;;;;;;;;;;;;;5047176;28;1644;-74
2022/08/26 16:47:20;;;;;;;;;;;;;;;;;;5038897;28;1354;-75
2022/08/26 16:49:46;;;;;;;;;;;;;;;;;;5048631;28;1393;-75
2022/08/26 16:52:12;;;;;;;;;;;;;;;;;;5034767;28;1475;-74
2022/08/26 16:54:39;;;;;;;;;;;;;;;;;;5052860;28;1906;-75
2022/08/26 16:57:05;;;;;;;;;;;;;;;;;;5043362;28;1532;-74
2022/08/26 16:59:32;;;;;;;;;;;;;;;;;;5039812;28;1425;-73
2022/08/26 17:02:00;;;;;;;;;;;;;;;;;;5049642;28;1341;-73
2022/08/26 17:04:26;;;;;;;;;;;;;;;;;;5051830;28;1331;-74
2022/08/26 17:06:53;;;;;;;;;;;;;;;;;;5052735;28;956;-74
2022/08/26 17:09:19;;;;;;;;;;;;;;;;;;5047327;28;1396;-74
2022/08/26 17:11:45;;;;;;;;;;;;;;;;;;5044719;28;1468;-74